Aérodrome :
LOGIN :

S'inscrire | Disclaimer

   EN    FR    IT 

 










Légende :    VFR   VFR Marginal   IFR   IFR Intensif   IFR Très Intensif
Visi : 
Plafond : 
>= 8 km
>= 3000ft
5 à 8 km
1000 à 3000 ft
1500m à 5 km
500 à 1000 ft
800 à 1500m
200 à 500 ft
< 800m
< 200 ft
Symboles :   Orages  Brouillard  Fortes neiges  Fortes précipitations  Vent > 20 kt
SIGMETs :   Divers  Orages  Givrage  Turbulence  Onde Orograph.  Cendres Volcan.






- Altitude de l'aérodrome : 364 ft
- Code IATA : FRA


EDDF - Frankfurt Int.

DERNIER METAR :
  • 211050Z AUTO 19009KT 170V240 9999 VCSH FEW///TCU 26/17 Q1009 TEMPO SHRA

METARs EXPIRÉS :
  • 211020Z AUTO 20007KT CAVOK 26/18 Q1009 TEMPO SHRA
  • 210950Z AUTO 21009KT 170V230 CAVOK 26/18 Q1009 NOSIG
  • 210920Z AUTO 20008KT 170V240 CAVOK 26/17 Q1009 NOSIG
  • 210850Z AUTO 19009KT 150V220 CAVOK 25/18 Q1008 NOSIG
  • 210820Z AUTO 20009KT 160V220 CAVOK 24/18 Q1008 NOSIG
  • 210750Z AUTO 19009KT 160V220 9999 VCSH FEW///TCU 25/18 Q1008 RESHRA NOSIG
  • 210720Z AUTO 10008KT 070V130 9999 SHRA FEW045 FEW///CB 24/18 Q1007 TEMPO NSW
  • 210650Z AUTO 36004KT 310V090 9999 -SHRA FEW///CB 24/17 Q1007 TEMPO SHRA
  • 210620Z AUTO 26005KT 220V330 CAVOK 24/17 Q1007 TEMPO SHRA

TAF TAF EDDF
Valide du 21 à 06h jusqu'au 22 à 12h UTC


210500Z 2106/2212 20004KT CAVOK
TEMPO 2106/2109 SHRA SCT040CB
BECMG 2109/2111 23009KT
TEMPO 2111/2122 SHRA BKN040CB
PROB30
TEMPO 2111/2116 26015G25KT TSRA BKN030CB
PROB30
TEMPO 2120/2122 28015G25KT TSRA BKN020CB
BECMG 2122/2202 29007KT BKN030
BECMG 2207/2210 SCT040



MET'MAP, la Météo Aéronautique d'un coup d'oeil ! - Copyright ORBIFLY Décembre 2007 - Disclaimer

ORBIFLY MET'MAP TEAM :

Programmation & Développement : Alexandra Zaïnal
Sur une idée originale de : Baudouin d'Aumeries
Soutien technique & logistique : Manuel Goepfert
Assistance : Marc-Olivier Méhu




SOURCES & CREDITS :

   NOAA